Terminal Aerodrome Forecast
Issued by NWS

Home | Current Version | Previous Version | Text Only | Print | Product List | Glossary On
Versions: 1 2 3 4 5 6 7 8 9 10 11 12 13 14 15 16 17 18 19 20 21 22 23 24
000
FTUS41 KPBZ 301500 AAB
TAFDUJ
TAF AMD
KDUJ 301501Z 3015/3112 30008KT P6SM BKN022
     FM302000 29006KT P6SM BKN035
     FM310900 23005KT P6SM OVC030=

USA.gov is the U.S. government's official web portal to all federal, state and local government web resources and services.